createdAt,value
2019-03-13T00:01:19.565Z,0.40
2019-03-13T00:03:23.883Z,0.40
2019-03-13T00:05:27.839Z,0.40
2019-03-13T00:07:31.989Z,0.33
2019-03-13T00:09:36.197Z,0.30
2019-03-13T00:11:40.512Z,0.50
2019-03-13T00:13:44.616Z,0.40
2019-03-13T00:15:49.950Z,0.45
2019-03-13T00:17:54.374Z,0.40
2019-03-13T00:19:58.504Z,0.50
2019-03-13T00:22:02.699Z,0.57
2019-03-13T00:24:06.518Z,0.60
2019-03-13T00:26:10.626Z,0.40
2019-03-13T00:28:14.741Z,0.40
2019-03-13T00:30:19.043Z,0.50
2019-03-13T00:32:23.180Z,0.40
2019-03-13T00:34:27.258Z,0.70
2019-03-13T00:36:33.417Z,0.60
2019-03-13T00:38:37.527Z,0.40
2019-03-13T00:40:41.664Z,0.47
2019-03-13T00:42:45.767Z,0.60
2019-03-13T00:44:49.879Z,0.75
2019-03-13T00:46:53.979Z,0.40
2019-03-13T00:48:57.801Z,0.40
2019-03-13T00:51:01.607Z,0.40
2019-03-13T00:53:05.420Z,0.40
2019-03-13T00:55:09.698Z,0.40
2019-03-13T00:57:13.806Z,0.40
2019-03-13T00:59:17.914Z,0.30
2019-03-13T01:01:23.772Z,0.35
2019-03-13T01:03:29.518Z,0.60
2019-03-13T01:05:43.994Z,0.30
2019-03-13T01:07:48.182Z,0.45
2019-03-13T01:09:52.296Z,0.47
2019-03-13T01:11:56.508Z,0.50
2019-03-13T01:14:00.620Z,0.33
2019-03-13T01:16:04.730Z,0.50
2019-03-13T01:18:08.547Z,0.60
2019-03-13T01:20:12.490Z,0.60
2019-03-13T01:22:16.134Z,0.72
2019-03-13T01:24:24.450Z,0.60
2019-03-13T01:26:28.255Z,0.50
2019-03-13T01:28:32.457Z,0.80
2019-03-13T01:30:54.274Z,0.70
2019-03-13T01:33:00.024Z,0.65
2019-03-13T01:35:08.538Z,0.62
2019-03-13T01:37:12.406Z,0.80
2019-03-13T01:39:16.227Z,0.70
2019-03-13T01:41:20.038Z,0.75
2019-03-13T01:43:24.950Z,0.70
2019-03-13T01:45:29.102Z,0.82
2019-03-13T01:47:33.206Z,0.80
2019-03-13T01:49:37.327Z,0.82
2019-03-13T01:51:43.684Z,1.10
2019-03-13T01:53:47.500Z,1.05
2019-03-13T01:55:51.699Z,0.88
2019-03-13T01:57:55.816Z,0.82
2019-03-13T01:59:59.932Z,0.82
2019-03-13T02:02:03.847Z,1.05
2019-03-13T02:04:08.042Z,1.17
2019-03-13T02:06:12.140Z,0.80
2019-03-13T02:08:16.257Z,1.20
2019-03-13T02:10:20.382Z,1.05
2019-03-13T02:12:24.276Z,1.00
2019-03-13T02:14:28.082Z,1.15
2019-03-13T02:16:32.192Z,1.30
2019-03-13T02:18:36.406Z,1.40
2019-03-13T02:20:40.498Z,1.10
2019-03-13T02:22:44.630Z,1.27
2019-03-13T02:24:48.834Z,0.95
2019-03-13T02:26:55.417Z,1.27
2019-03-13T02:28:59.625Z,1.02
2019-03-13T02:31:03.730Z,1.00
2019-03-13T02:33:07.929Z,1.10
2019-03-13T02:35:12.150Z,1.52
2019-03-13T02:37:16.250Z,0.93
2019-03-13T02:39:20.163Z,1.80
2019-03-13T02:41:23.956Z,1.00
2019-03-13T02:43:27.849Z,1.00
2019-03-13T02:45:31.682Z,0.90
2019-03-13T02:47:35.506Z,2.90
2019-03-13T02:49:41.924Z,1.00
2019-03-13T02:51:45.746Z,1.57
2019-03-13T02:53:49.578Z,0.80
2019-03-13T02:55:53.766Z,1.12
2019-03-13T02:57:57.872Z,1.50
2019-03-13T03:00:01.997Z,1.10
2019-03-13T03:02:10.590Z,1.42
2019-03-13T03:04:14.711Z,1.00
2019-03-13T03:06:18.817Z,1.67
2019-03-13T03:08:22.935Z,1.47
2019-03-13T03:10:26.776Z,1.57
2019-03-13T03:12:30.955Z,1.70
2019-03-13T03:14:35.147Z,2.00
2019-03-13T03:16:38.956Z,2.42
2019-03-13T03:18:43.060Z,2.55
2019-03-13T03:20:47.165Z,2.08
2019-03-13T03:22:51.297Z,2.12
2019-03-13T03:24:55.107Z,2.90
2019-03-13T03:26:58.946Z,2.67
2019-03-13T03:29:02.754Z,2.10
2019-03-13T03:31:07.039Z,2.35
2019-03-13T03:33:11.125Z,2.92
2019-03-13T03:35:15.337Z,2.70
2019-03-13T03:37:19.449Z,3.35
2019-03-13T03:39:23.562Z,3.02
2019-03-13T03:41:27.987Z,3.92
2019-03-13T03:43:39.994Z,3.30
2019-03-13T03:45:37.626Z,3.37
2019-03-13T03:47:41.866Z,3.55
2019-03-13T03:49:45.951Z,4.30
2019-03-13T03:51:50.067Z,3.47
2019-03-13T03:53:54.175Z,3.70
2019-03-13T03:55:58.403Z,4.08
2019-03-13T03:58:03.631Z,4.05
2019-03-13T04:00:10.833Z,4.55
2019-03-13T04:02:14.933Z,3.67
2019-03-13T04:04:19.027Z,3.33
2019-03-13T04:06:25.071Z,4.10
2019-03-13T04:08:28.889Z,3.55
2019-03-13T04:10:35.963Z,3.37
2019-03-13T04:12:40.073Z,3.15
2019-03-13T04:14:44.679Z,3.85
2019-03-13T04:16:48.818Z,4.05
2019-03-13T04:18:52.600Z,3.80
2019-03-13T04:20:56.416Z,3.98
2019-03-13T04:23:03.185Z,4.17
2019-03-13T04:25:22.153Z,4.15
2019-03-13T04:27:25.971Z,4.25
2019-03-13T04:29:30.152Z,3.80
2019-03-13T04:31:35.895Z,4.20
2019-03-13T04:33:40.002Z,4.75
2019-03-13T04:35:44.120Z,4.85
2019-03-13T04:37:48.243Z,4.37
2019-03-13T04:39:52.043Z,3.90
2019-03-13T04:41:56.144Z,4.20
2019-03-13T04:44:00.356Z,4.60
2019-03-13T04:46:04.168Z,4.28
2019-03-13T04:48:08.376Z,4.62
2019-03-13T04:50:15.770Z,4.08
2019-03-13T04:52:20.448Z,4.85
2019-03-13T04:54:24.274Z,3.80
2019-03-13T04:56:28.396Z,4.45
2019-03-13T04:58:32.616Z,4.25
2019-03-13T05:00:36.732Z,4.40
2019-03-13T05:02:40.832Z,4.65
2019-03-13T05:04:45.050Z,3.45
2019-03-13T05:06:48.862Z,3.45
2019-03-13T05:08:54.113Z,3.25
2019-03-13T05:10:57.811Z,3.90
2019-03-13T05:13:04.496Z,3.10
2019-03-13T05:15:08.654Z,3.62
2019-03-13T05:17:12.782Z,2.92
2019-03-13T05:19:16.984Z,2.72
2019-03-13T05:21:21.090Z,2.83
2019-03-13T05:23:25.214Z,2.90
2019-03-13T05:25:29.313Z,2.67
2019-03-13T05:27:33.436Z,2.72
2019-03-13T05:29:37.814Z,2.45
2019-03-13T05:31:41.954Z,2.40
2019-03-13T05:33:46.068Z,2.50
2019-03-13T05:35:50.178Z,2.08
2019-03-13T05:37:54.290Z,2.10
2019-03-13T05:39:58.394Z,2.72
2019-03-13T05:42:02.645Z,2.62
2019-03-13T05:44:09.665Z,2.65
2019-03-13T05:46:14.230Z,2.20
2019-03-13T05:48:18.427Z,2.50
2019-03-13T05:50:22.517Z,2.40
2019-03-13T05:52:26.645Z,2.40
2019-03-13T05:54:30.850Z,2.17
2019-03-13T05:56:34.972Z,2.40
2019-03-13T05:58:39.657Z,1.92
2019-03-13T06:00:43.796Z,1.92
2019-03-13T06:02:48.142Z,2.05
2019-03-13T06:04:52.323Z,2.15
2019-03-13T06:06:56.441Z,2.42
2019-03-13T06:09:03.315Z,1.72
2019-03-13T06:11:07.411Z,2.25
2019-03-13T06:13:11.538Z,2.37
2019-03-13T06:15:16.099Z,2.70
2019-03-13T06:17:20.264Z,2.10
2019-03-13T06:19:24.083Z,2.27
2019-03-13T06:21:28.279Z,2.00
2019-03-13T06:23:32.102Z,2.15
2019-03-13T06:25:38.034Z,2.25
2019-03-13T06:27:41.963Z,2.92
2019-03-13T06:29:46.058Z,2.65
2019-03-13T06:31:49.914Z,1.90
2019-03-13T06:33:54.071Z,1.82
2019-03-13T06:35:58.081Z,2.40
2019-03-13T06:38:02.312Z,1.90
2019-03-13T06:40:09.563Z,2.15
2019-03-13T06:42:13.697Z,2.47
2019-03-13T06:44:17.517Z,2.22
2019-03-13T06:46:21.666Z,2.50
2019-03-13T06:48:25.827Z,2.17
2019-03-13T06:50:29.931Z,2.00
2019-03-13T06:52:33.741Z,2.10
2019-03-13T06:54:37.936Z,2.30
2019-03-13T06:56:42.060Z,2.83
2019-03-13T06:58:47.514Z,2.10
2019-03-13T07:00:59.072Z,2.10
2019-03-13T07:03:17.205Z,2.72
2019-03-13T07:05:23.076Z,2.00
2019-03-13T07:07:28.922Z,1.98
2019-03-13T07:09:39.588Z,2.20
2019-03-13T07:11:47.892Z,3.22
2019-03-13T07:14:04.848Z,2.37
2019-03-13T07:16:26.937Z,4.75
2019-03-13T07:18:35.764Z,2.30
2019-03-13T07:20:57.886Z,2.15
2019-03-13T07:23:05.988Z,1.90
2019-03-13T07:25:21.052Z,2.10
2019-03-13T07:27:43.084Z,2.20
2019-03-13T07:29:51.603Z,1.87
2019-03-13T07:31:57.450Z,2.22
2019-03-13T07:34:03.203Z,1.95
2019-03-13T07:36:08.647Z,2.37
2019-03-13T07:38:32.367Z,1.95
2019-03-13T07:40:44.792Z,2.00
2019-03-13T07:42:52.667Z,1.87
2019-03-13T07:45:13.551Z,2.10
2019-03-13T07:47:34.119Z,2.40
2019-03-13T07:49:55.941Z,1.87
2019-03-13T07:52:17.851Z,2.08
2019-03-13T07:54:32.620Z,2.00
2019-03-13T07:56:57.701Z,2.20
2019-03-13T07:59:15.483Z,1.90
2019-03-13T08:01:24.269Z,2.02
2019-03-13T08:03:46.041Z,1.77
2019-03-13T08:05:57.115Z,2.02
2019-03-13T08:08:08.449Z,1.98
2019-03-13T08:10:14.307Z,2.02
2019-03-13T08:12:36.489Z,1.92
2019-03-13T08:14:54.578Z,1.92
2019-03-13T08:17:12.711Z,1.80
2019-03-13T08:19:34.565Z,2.05
2019-03-13T08:21:45.611Z,1.80
2019-03-13T08:23:51.083Z,2.17
2019-03-13T08:26:02.405Z,1.98
2019-03-13T08:28:16.995Z,2.20
2019-03-13T08:30:39.218Z,1.98
2019-03-13T08:32:44.677Z,1.98
2019-03-13T08:35:06.812Z,2.72
2019-03-13T08:37:19.721Z,1.95
2019-03-13T08:39:25.178Z,2.00
2019-03-13T08:41:42.780Z,2.05
2019-03-13T08:43:50.931Z,2.25
2019-03-13T08:45:56.741Z,2.50
2019-03-13T08:48:02.593Z,2.17
2019-03-13T08:50:31.295Z,1.90
2019-03-13T08:52:37.137Z,2.52
2019-03-13T08:54:42.985Z,2.85
2019-03-13T08:56:57.231Z,1.55
2019-03-13T08:59:04.517Z,2.62
2019-03-13T09:01:15.466Z,2.15
2019-03-13T09:03:21.567Z,3.30
2019-03-13T09:05:36.396Z,2.47
2019-03-13T09:07:42.147Z,2.77
2019-03-13T09:09:47.623Z,2.77
2019-03-13T09:11:53.330Z,2.77
2019-03-13T09:14:13.785Z,2.60
2019-03-13T09:16:19.872Z,2.77
2019-03-13T09:18:28.955Z,2.45
2019-03-13T09:20:52.356Z,2.12
2019-03-13T09:23:01.833Z,2.92
2019-03-13T09:25:12.474Z,2.22
2019-03-13T09:27:32.175Z,2.80
2019-03-13T09:29:52.631Z,2.17
2019-03-13T09:32:10.183Z,3.30
2019-03-13T09:34:21.467Z,2.37
2019-03-13T09:36:29.751Z,2.85
2019-03-13T09:38:47.801Z,3.22
2019-03-13T09:40:59.275Z,2.52
2019-03-13T09:43:07.623Z,2.17
2019-03-13T09:45:29.635Z,2.33
2019-03-13T09:47:38.047Z,2.20
2019-03-13T09:49:45.415Z,3.62
2019-03-13T09:52:07.151Z,2.15
2019-03-13T09:54:12.996Z,2.37
2019-03-13T09:56:25.084Z,2.90
2019-03-13T09:58:42.930Z,3.35
2019-03-13T10:01:04.141Z,3.10
2019-03-13T10:03:09.592Z,3.83
2019-03-13T10:05:15.631Z,3.37
2019-03-13T10:07:21.385Z,2.85
2019-03-13T10:09:35.939Z,2.12
2019-03-13T10:11:41.421Z,3.30
2019-03-13T10:13:49.821Z,2.30
2019-03-13T10:15:55.632Z,2.70
2019-03-13T10:18:06.929Z,2.20
2019-03-13T10:20:29.044Z,2.33
2019-03-13T10:22:41.042Z,2.77
2019-03-13T10:24:52.594Z,2.98
2019-03-13T10:27:13.979Z,2.37
2019-03-13T10:29:28.428Z,2.08
2019-03-13T10:31:46.710Z,2.60
2019-03-13T10:33:52.800Z,2.77
2019-03-13T10:36:10.420Z,2.75
2019-03-13T10:38:34.516Z,2.95
2019-03-13T10:40:42.930Z,2.20
2019-03-13T10:42:51.531Z,2.80
2019-03-13T10:44:59.676Z,2.35
2019-03-13T10:47:11.415Z,2.83
2019-03-13T10:49:21.484Z,2.93
2019-03-13T10:51:30.092Z,2.95
2019-03-13T10:53:42.086Z,2.10
2019-03-13T10:55:55.192Z,2.30
2019-03-13T10:58:03.914Z,2.75
2019-03-13T11:00:24.416Z,2.92
2019-03-13T11:02:33.028Z,2.50
2019-03-13T11:04:44.740Z,2.60
2019-03-13T11:06:55.256Z,3.33
2019-03-13T11:09:16.658Z,3.17
2019-03-13T11:11:38.312Z,2.37
2019-03-13T11:13:44.168Z,3.10
2019-03-13T11:16:05.871Z,3.02
2019-03-13T11:18:11.639Z,2.87
2019-03-13T11:20:33.786Z,3.10
2019-03-13T11:22:58.162Z,3.20
2019-03-13T11:25:19.773Z,2.52
2019-03-13T11:27:43.958Z,2.50
2019-03-13T11:29:55.650Z,2.45
2019-03-13T11:32:13.484Z,2.30
2019-03-13T11:34:20.142Z,2.50
2019-03-13T11:36:42.244Z,2.33
2019-03-13T11:38:48.028Z,2.80
2019-03-13T11:40:53.945Z,2.10
2019-03-13T11:43:08.440Z,1.98
2019-03-13T11:45:14.051Z,2.87
2019-03-13T11:47:19.828Z,2.55
2019-03-13T11:49:43.819Z,2.83
2019-03-13T11:51:58.254Z,3.77
2019-03-13T11:54:20.174Z,2.75
2019-03-13T11:56:35.634Z,2.87
2019-03-13T11:58:47.364Z,2.58
2019-03-13T12:01:01.615Z,2.30
2019-03-13T12:03:07.455Z,2.75
2019-03-13T12:05:21.001Z,2.77
2019-03-13T12:07:35.686Z,2.75
2019-03-13T12:09:59.303Z,2.58
2019-03-13T12:12:16.942Z,2.77
2019-03-13T12:14:38.976Z,2.50
2019-03-13T12:16:47.791Z,2.55
2019-03-13T12:19:02.567Z,2.80
2019-03-13T12:21:14.141Z,3.10
2019-03-13T12:23:22.646Z,2.50
2019-03-13T12:25:43.548Z,3.22
2019-03-13T12:27:52.792Z,2.85
2019-03-13T12:30:14.913Z,3.20
2019-03-13T12:32:26.917Z,3.12
2019-03-13T12:34:32.378Z,3.20
2019-03-13T12:36:47.098Z,3.20
2019-03-13T12:39:01.984Z,2.42
2019-03-13T12:41:07.724Z,4.08
2019-03-13T12:43:30.164Z,3.40
2019-03-13T12:45:38.988Z,3.30
2019-03-13T12:47:50.027Z,2.67
2019-03-13T12:49:55.804Z,2.12
2019-03-13T12:52:07.294Z,2.95
2019-03-13T12:54:29.114Z,2.33
2019-03-13T12:56:50.150Z,2.65
2019-03-13T12:59:08.056Z,2.90
2019-03-13T13:01:16.780Z,1.98
2019-03-13T13:03:41.378Z,2.17
2019-03-13T13:06:03.317Z,2.50
2019-03-13T13:08:09.154Z,2.47
2019-03-13T13:10:26.166Z,3.12
2019-03-13T13:12:31.682Z,2.20
2019-03-13T13:14:41.768Z,2.52
2019-03-13T13:16:49.927Z,2.08
2019-03-13T13:18:54.070Z,1.82
2019-03-13T13:20:58.182Z,3.02
2019-03-13T13:23:02.296Z,1.82
2019-03-13T13:25:09.266Z,2.08
2019-03-13T13:27:13.472Z,2.20
2019-03-13T13:29:17.282Z,1.92
2019-03-13T13:31:21.487Z,2.77
2019-03-13T13:33:25.602Z,1.90
2019-03-13T13:35:29.705Z,2.15
2019-03-13T13:37:33.924Z,1.87
2019-03-13T13:39:37.732Z,2.50
2019-03-13T13:41:41.931Z,2.22
2019-03-13T13:43:45.776Z,2.77
2019-03-13T13:45:53.141Z,2.22
2019-03-13T13:47:57.236Z,2.40
2019-03-13T13:50:03.195Z,3.17
2019-03-13T13:52:07.415Z,1.90
2019-03-13T13:54:11.248Z,2.40
2019-03-13T13:56:15.424Z,2.00
2019-03-13T13:58:19.529Z,2.33
2019-03-13T14:00:23.362Z,2.25
2019-03-13T14:02:27.556Z,2.40
2019-03-13T14:04:31.758Z,2.37
2019-03-13T14:06:35.868Z,2.30
2019-03-13T14:08:39.972Z,2.83
2019-03-13T14:10:43.799Z,2.62
2019-03-13T14:12:47.600Z,2.35
2019-03-13T14:14:51.796Z,2.50
2019-03-13T14:16:55.912Z,2.45
2019-03-13T14:19:00.010Z,2.10
2019-03-13T14:21:04.762Z,2.72
2019-03-13T14:23:08.957Z,2.12
2019-03-13T14:25:14.467Z,2.70
2019-03-13T14:27:20.018Z,2.85
2019-03-13T14:29:24.144Z,2.67
2019-03-13T14:31:28.268Z,2.15
2019-03-13T14:33:32.376Z,2.70
2019-03-13T14:35:36.591Z,2.58
2019-03-13T14:37:40.712Z,3.50
2019-03-13T14:39:44.906Z,3.15
2019-03-13T14:41:49.018Z,2.40
2019-03-13T14:43:53.233Z,3.22
2019-03-13T14:45:57.327Z,3.17
2019-03-13T14:48:01.450Z,2.70
2019-03-13T14:50:08.356Z,3.15
2019-03-13T14:52:12.462Z,3.37
2019-03-13T14:54:16.667Z,2.55
2019-03-13T14:56:20.884Z,2.95
2019-03-13T14:58:25.074Z,3.17
2019-03-13T15:00:28.971Z,3.10
2019-03-13T15:02:33.085Z,2.50
2019-03-13T15:04:37.208Z,3.08
2019-03-13T15:06:41.142Z,2.42
2019-03-13T15:08:45.009Z,2.42
2019-03-13T15:10:48.930Z,3.20
2019-03-13T15:12:53.044Z,3.08
2019-03-13T15:14:56.860Z,2.35
2019-03-13T15:17:00.683Z,2.72
2019-03-13T15:19:04.847Z,2.08
2019-03-13T15:21:09.054Z,2.45
2019-03-13T15:23:13.188Z,3.40
2019-03-13T15:25:17.423Z,2.60
2019-03-13T15:27:21.503Z,2.83
2019-03-13T15:29:25.346Z,2.80
2019-03-13T15:31:29.535Z,3.20
2019-03-13T15:33:33.388Z,3.17
2019-03-13T15:35:37.514Z,3.40
2019-03-13T15:37:43.202Z,3.12
2019-03-13T15:39:46.956Z,3.10
2019-03-13T15:41:50.776Z,3.12
2019-03-13T15:43:54.998Z,2.75
2019-03-13T15:45:59.199Z,3.05
2019-03-13T15:48:03.478Z,3.42
2019-03-13T15:50:10.697Z,3.37
2019-03-13T15:52:14.537Z,4.22
2019-03-13T15:54:18.713Z,3.37
2019-03-13T15:56:22.886Z,2.98
2019-03-13T15:58:27.075Z,3.30
2019-03-13T16:00:31.767Z,3.95
2019-03-13T16:02:36.001Z,3.60
2019-03-13T16:04:39.808Z,3.35
2019-03-13T16:06:43.981Z,2.92
2019-03-13T16:08:48.085Z,3.10
2019-03-13T16:10:52.304Z,3.50
2019-03-13T16:12:58.152Z,2.95
2019-03-13T16:15:02.294Z,3.17
2019-03-13T16:17:06.494Z,3.83
2019-03-13T16:19:11.966Z,3.60
2019-03-13T16:21:15.830Z,3.50
2019-03-13T16:23:19.753Z,3.40
2019-03-13T16:25:25.605Z,3.05
2019-03-13T16:27:29.793Z,3.27
2019-03-13T16:29:33.631Z,3.27
2019-03-13T16:31:38.635Z,3.00
2019-03-13T16:33:43.659Z,3.77
2019-03-13T16:35:47.902Z,3.47
2019-03-13T16:37:52.115Z,3.10
2019-03-13T16:39:56.317Z,2.95
2019-03-13T16:42:02.113Z,3.27
2019-03-13T16:44:06.259Z,3.30
2019-03-13T16:46:10.181Z,3.87
2019-03-13T16:48:14.292Z,3.10
2019-03-13T16:50:29.173Z,3.52
2019-03-13T16:52:33.360Z,2.95
2019-03-13T16:54:37.460Z,3.08
2019-03-13T16:56:41.575Z,3.22
2019-03-13T16:58:45.697Z,2.77
2019-03-13T17:00:50.750Z,2.52
2019-03-13T17:02:55.337Z,2.62
2019-03-13T17:04:59.477Z,3.42
2019-03-13T17:07:03.678Z,3.52
2019-03-13T17:09:07.561Z,2.70
2019-03-13T17:11:11.793Z,2.77
2019-03-13T17:13:15.888Z,2.58
2019-03-13T17:15:21.816Z,3.20
2019-03-13T17:17:25.958Z,3.17
2019-03-13T17:19:31.413Z,2.67
2019-03-13T17:21:35.803Z,3.80
2019-03-13T17:23:39.639Z,2.98
2019-03-13T17:25:43.817Z,3.45
2019-03-13T17:27:48.289Z,3.27
2019-03-13T17:29:52.452Z,3.45
2019-03-13T17:31:56.671Z,3.10
2019-03-13T17:34:00.895Z,2.80
2019-03-13T17:36:05.095Z,2.98
2019-03-13T17:38:08.907Z,2.83
2019-03-13T17:40:15.988Z,2.33
2019-03-13T17:42:20.086Z,2.45
2019-03-13T17:44:24.195Z,2.27
2019-03-13T17:46:28.065Z,3.35
2019-03-13T17:48:32.164Z,2.77
2019-03-13T17:50:36.089Z,2.17
2019-03-13T17:52:39.958Z,2.60
2019-03-13T17:54:44.123Z,2.12
2019-03-13T17:56:48.237Z,2.42
2019-03-13T17:58:52.357Z,2.50
2019-03-13T18:00:57.150Z,2.70
2019-03-13T18:03:01.297Z,2.40
2019-03-13T18:05:09.223Z,3.10
2019-03-13T18:07:13.403Z,4.03
2019-03-13T18:09:17.216Z,4.50
2019-03-13T18:11:22.990Z,5.30
2019-03-13T18:13:27.273Z,4.62
2019-03-13T18:15:31.513Z,4.58
2019-03-13T18:17:35.317Z,4.42
2019-03-13T18:19:39.493Z,4.15
2019-03-13T18:21:43.577Z,3.62
2019-03-13T18:23:47.714Z,3.45
2019-03-13T18:25:53.165Z,3.30
2019-03-13T18:27:58.877Z,3.25
2019-03-13T18:30:03.224Z,4.17
2019-03-13T18:32:09.549Z,3.90
2019-03-13T18:34:14.342Z,3.65
2019-03-13T18:36:18.168Z,3.92
2019-03-13T18:38:22.333Z,4.08
2019-03-13T18:40:26.952Z,4.53
2019-03-13T18:42:31.065Z,4.05
2019-03-13T18:44:37.850Z,4.45
2019-03-13T18:46:41.133Z,5.25
2019-03-13T18:48:45.243Z,5.62
2019-03-13T18:50:49.453Z,4.95
2019-03-13T18:52:53.345Z,5.05
2019-03-13T18:54:58.995Z,5.95
2019-03-13T18:57:05.435Z,5.40
2019-03-13T18:59:09.577Z,6.25
2019-03-13T19:01:13.800Z,5.65
2019-03-13T19:03:18.003Z,8.78
2019-03-13T19:05:22.281Z,6.33
2019-03-13T19:07:26.436Z,5.90
2019-03-13T19:09:30.639Z,5.17
2019-03-13T19:11:34.867Z,4.92
2019-03-13T19:13:39.055Z,5.20
2019-03-13T19:15:42.863Z,5.35
2019-03-13T19:17:46.971Z,5.42
2019-03-13T19:19:51.189Z,5.67
2019-03-13T19:21:55.298Z,6.80
2019-03-13T19:24:02.318Z,5.30
2019-03-13T19:26:05.059Z,5.70
2019-03-13T19:28:08.900Z,6.20
2019-03-13T19:30:33.343Z,6.25
2019-03-13T19:32:37.550Z,5.87
2019-03-13T19:34:41.670Z,5.75
2019-03-13T19:36:45.589Z,6.37
2019-03-13T19:38:49.693Z,5.83
2019-03-13T19:40:53.896Z,5.40
2019-03-13T19:42:59.523Z,5.70
2019-03-13T19:45:04.163Z,5.42
2019-03-13T19:47:08.283Z,5.25
2019-03-13T19:49:12.502Z,4.80
2019-03-13T19:51:16.706Z,5.00
2019-03-13T19:53:20.830Z,4.30
2019-03-13T19:55:24.732Z,4.87
2019-03-13T19:57:30.462Z,4.80
2019-03-13T19:59:36.862Z,4.15
2019-03-13T20:01:40.126Z,4.37
2019-03-13T20:03:54.702Z,4.85
2019-03-13T20:05:50.179Z,4.83
2019-03-13T20:07:54.295Z,3.33
2019-03-13T20:09:58.614Z,3.45
2019-03-13T20:12:02.430Z,3.40
2019-03-13T20:14:06.636Z,4.10
2019-03-13T20:16:12.259Z,2.45
2019-03-13T20:18:16.384Z,2.20
2019-03-13T20:20:22.319Z,2.40
2019-03-13T20:22:26.438Z,2.35
2019-03-13T20:24:30.242Z,1.75
2019-03-13T20:26:36.094Z,1.90
2019-03-13T20:28:40.200Z,1.00
2019-03-13T20:30:44.171Z,4.12
2019-03-13T20:32:48.336Z,0.80
2019-03-13T20:34:52.642Z,1.40
2019-03-13T20:36:58.723Z,0.90
2019-03-13T20:39:02.802Z,0.70
2019-03-13T20:41:07.008Z,0.93
2019-03-13T20:43:11.230Z,1.10
2019-03-13T20:45:18.160Z,1.10
2019-03-13T20:47:21.982Z,1.62
2019-03-13T20:49:25.784Z,1.10
2019-03-13T20:51:30.014Z,1.40
2019-03-13T20:53:34.130Z,1.10
2019-03-13T20:55:38.348Z,1.12
2019-03-13T20:57:42.552Z,1.05
2019-03-13T20:59:46.674Z,1.87
2019-03-13T21:01:50.769Z,1.30
2019-03-13T21:03:54.996Z,1.42
2019-03-13T21:06:00.814Z,1.40
2019-03-13T21:08:04.842Z,1.37
2019-03-13T21:10:10.811Z,1.30
2019-03-13T21:12:14.926Z,1.40
2019-03-13T21:14:19.017Z,1.57
2019-03-13T21:16:24.476Z,1.65
2019-03-13T21:18:28.678Z,1.30
2019-03-13T21:20:32.828Z,2.05
2019-03-13T21:22:37.010Z,1.60
2019-03-13T21:24:41.832Z,1.87
2019-03-13T21:26:49.104Z,1.75
2019-03-13T21:28:51.788Z,1.75
2019-03-13T21:30:55.917Z,2.02
2019-03-13T21:33:00.010Z,1.77
2019-03-13T21:35:04.326Z,1.50
2019-03-13T21:37:08.212Z,1.95
2019-03-13T21:39:15.496Z,1.62
2019-03-13T21:41:22.106Z,1.50
2019-03-13T21:43:25.916Z,1.90
2019-03-13T21:45:40.334Z,1.67
2019-03-13T21:47:35.958Z,2.62
2019-03-13T21:49:40.087Z,1.30
2019-03-13T21:51:43.916Z,1.30
2019-03-13T21:53:52.276Z,1.50
2019-03-13T21:55:58.593Z,1.20
2019-03-13T21:58:02.746Z,1.50
2019-03-13T22:00:12.785Z,1.70
2019-03-13T22:02:16.916Z,1.42
2019-03-13T22:04:24.441Z,1.40
2019-03-13T22:06:29.081Z,1.30
2019-03-13T22:08:33.418Z,1.92
2019-03-13T22:10:37.545Z,1.45
2019-03-13T22:12:41.646Z,1.60
2019-03-13T22:14:45.871Z,1.77
2019-03-13T22:16:49.973Z,2.37
2019-03-13T22:18:54.086Z,1.92
2019-03-13T22:20:58.195Z,1.80
2019-03-13T22:23:02.308Z,1.75
2019-03-13T22:25:11.020Z,2.02
2019-03-13T22:27:15.437Z,2.17
2019-03-13T22:29:19.666Z,2.33
2019-03-13T22:31:23.766Z,2.30
2019-03-13T22:33:30.458Z,2.35
2019-03-13T22:35:34.650Z,2.80
2019-03-13T22:37:38.536Z,2.65
2019-03-13T22:39:42.348Z,2.62
2019-03-13T22:41:46.472Z,3.02
2019-03-13T22:43:50.613Z,2.83
2019-03-13T22:45:54.803Z,2.98
2019-03-13T22:47:58.891Z,2.90
2019-03-13T22:50:05.038Z,2.90
2019-03-13T22:52:09.274Z,3.00
2019-03-13T22:54:15.092Z,2.87
2019-03-13T22:56:18.900Z,3.58
2019-03-13T22:58:24.742Z,3.05
2019-03-13T23:00:54.004Z,3.37
2019-03-13T23:02:58.183Z,3.47
2019-03-13T23:05:03.936Z,3.60
2019-03-13T23:07:07.951Z,3.70
2019-03-13T23:09:12.822Z,4.03
2019-03-13T23:11:16.709Z,3.95
2019-03-13T23:13:20.899Z,3.70
2019-03-13T23:15:25.097Z,5.08
2019-03-13T23:17:29.314Z,4.50
2019-03-13T23:19:34.114Z,4.35
2019-03-13T23:21:38.263Z,4.55
2019-03-13T23:23:42.374Z,3.87
2019-03-13T23:25:46.199Z,3.95
2019-03-13T23:27:50.029Z,4.17
2019-03-13T23:29:54.192Z,4.65
2019-03-13T23:31:58.395Z,4.33
2019-03-13T23:34:02.624Z,4.00
2019-03-13T23:36:06.936Z,5.10
2019-03-13T23:38:11.338Z,4.30
2019-03-13T23:40:15.723Z,4.35
2019-03-13T23:42:22.010Z,4.55
2019-03-13T23:44:25.842Z,4.58
2019-03-13T23:46:30.030Z,4.25
2019-03-13T23:48:34.139Z,4.03
2019-03-13T23:50:38.250Z,4.33
2019-03-13T23:52:42.475Z,4.03
2019-03-13T23:54:46.300Z,4.37
2019-03-13T23:56:50.482Z,4.33
2019-03-13T23:58:54.684Z,4.40
